sensor_id;sensor_type;location;lat;lon;timestamp;temperature;humidity
516;DHT22;244;48.508;9.052;2022-12-08T00:01:05;4.00;17.30
516;DHT22;244;48.508;9.052;2022-12-08T00:03:32;4.10;17.30
516;DHT22;244;48.508;9.052;2022-12-08T00:06:03;3.80;17.30
516;DHT22;244;48.508;9.052;2022-12-08T00:08:48;3.80;17.20
516;DHT22;244;48.508;9.052;2022-12-08T00:11:33;3.70;17.50
516;DHT22;244;48.508;9.052;2022-12-08T00:14:00;3.70;17.40
516;DHT22;244;48.508;9.052;2022-12-08T00:16:27;3.60;17.50
516;DHT22;244;48.508;9.052;2022-12-08T00:18:54;3.40;17.30
516;DHT22;244;48.508;9.052;2022-12-08T00:21:23;3.40;17.20
516;DHT22;244;48.508;9.052;2022-12-08T00:23:50;3.30;17.40
516;DHT22;244;48.508;9.052;2022-12-08T00:26:20;3.20;17.30
516;DHT22;244;48.508;9.052;2022-12-08T00:28:47;3.10;17.50
516;DHT22;244;48.508;9.052;2022-12-08T00:31:14;3.00;17.60
516;DHT22;244;48.508;9.052;2022-12-08T00:33:41;3.00;17.80
516;DHT22;244;48.508;9.052;2022-12-08T00:36:09;2.90;17.90
516;DHT22;244;48.508;9.052;2022-12-08T00:38:39;2.90;17.90
516;DHT22;244;48.508;9.052;2022-12-08T00:41:11;2.80;17.90
516;DHT22;244;48.508;9.052;2022-12-08T00:43:38;2.70;17.90
516;DHT22;244;48.508;9.052;2022-12-08T00:46:05;2.70;18.00
516;DHT22;244;48.508;9.052;2022-12-08T00:48:32;2.60;18.00
516;DHT22;244;48.508;9.052;2022-12-08T00:50:59;2.60;18.10
516;DHT22;244;48.508;9.052;2022-12-08T00:53:26;2.50;18.10
516;DHT22;244;48.508;9.052;2022-12-08T00:55:54;2.50;18.80
516;DHT22;244;48.508;9.052;2022-12-08T00:58:21;2.50;18.30
516;DHT22;244;48.508;9.052;2022-12-08T01:00:48;2.40;18.20
516;DHT22;244;48.508;9.052;2022-12-08T01:03:15;2.40;18.20
516;DHT22;244;48.508;9.052;2022-12-08T01:05:42;2.40;18.40
516;DHT22;244;48.508;9.052;2022-12-08T01:08:09;2.30;18.40
516;DHT22;244;48.508;9.052;2022-12-08T01:10:37;2.30;18.50
516;DHT22;244;48.508;9.052;2022-12-08T01:13:06;2.30;18.50
516;DHT22;244;48.508;9.052;2022-12-08T01:15:33;2.30;18.50
516;DHT22;244;48.508;9.052;2022-12-08T01:18:00;2.20;18.40
516;DHT22;244;48.508;9.052;2022-12-08T01:20:27;2.10;18.40
516;DHT22;244;48.508;9.052;2022-12-08T01:22:54;2.10;18.50
516;DHT22;244;48.508;9.052;2022-12-08T01:25:21;2.10;18.60
516;DHT22;244;48.508;9.052;2022-12-08T01:27:48;2.00;18.60
516;DHT22;244;48.508;9.052;2022-12-08T01:30:19;2.00;18.60
516;DHT22;244;48.508;9.052;2022-12-08T01:32:45;1.90;18.50
516;DHT22;244;48.508;9.052;2022-12-08T01:35:13;1.90;18.40
516;DHT22;244;48.508;9.052;2022-12-08T01:37:39;1.80;18.40
516;DHT22;244;48.508;9.052;2022-12-08T01:40:07;1.80;18.50
516;DHT22;244;48.508;9.052;2022-12-08T01:42:34;1.70;18.50
516;DHT22;244;48.508;9.052;2022-12-08T01:45:04;1.70;18.70
516;DHT22;244;48.508;9.052;2022-12-08T01:47:37;1.70;18.80
516;DHT22;244;48.508;9.052;2022-12-08T01:50:08;1.60;19.00
516;DHT22;244;48.508;9.052;2022-12-08T01:52:39;1.60;19.00
516;DHT22;244;48.508;9.052;2022-12-08T01:55:11;1.60;19.00
516;DHT22;244;48.508;9.052;2022-12-08T01:57:42;1.50;18.90
516;DHT22;244;48.508;9.052;2022-12-08T02:00:14;1.60;19.00
516;DHT22;244;48.508;9.052;2022-12-08T02:02:51;1.60;19.00
516;DHT22;244;48.508;9.052;2022-12-08T02:05:21;1.50;18.90
516;DHT22;244;48.508;9.052;2022-12-08T02:07:50;1.50;18.90
516;DHT22;244;48.508;9.052;2022-12-08T02:10:20;1.50;19.10
516;DHT22;244;48.508;9.052;2022-12-08T02:12:48;1.50;19.20
516;DHT22;244;48.508;9.052;2022-12-08T02:15:17;1.50;19.20
516;DHT22;244;48.508;9.052;2022-12-08T02:17:55;1.50;18.90
516;DHT22;244;48.508;9.052;2022-12-08T02:20:40;1.40;18.80
516;DHT22;244;48.508;9.052;2022-12-08T02:23:17;1.40;18.80
516;DHT22;244;48.508;9.052;2022-12-08T02:26:12;1.30;18.80
516;DHT22;244;48.508;9.052;2022-12-08T02:29:04;1.30;18.80
516;DHT22;244;48.508;9.052;2022-12-08T02:31:41;1.20;18.80
516;DHT22;244;48.508;9.052;2022-12-08T02:34:21;1.20;19.00
516;DHT22;244;48.508;9.052;2022-12-08T02:36:57;1.20;19.10
516;DHT22;244;48.508;9.052;2022-12-08T02:39:34;1.20;19.20
516;DHT22;244;48.508;9.052;2022-12-08T02:42:08;1.20;19.40
516;DHT22;244;48.508;9.052;2022-12-08T02:44:40;1.20;19.50
516;DHT22;244;48.508;9.052;2022-12-08T02:47:13;1.20;19.50
516;DHT22;244;48.508;9.052;2022-12-08T02:49:42;1.20;19.50
516;DHT22;244;48.508;9.052;2022-12-08T02:52:37;1.20;20.00
516;DHT22;244;48.508;9.052;2022-12-08T02:55:10;1.10;19.30
516;DHT22;244;48.508;9.052;2022-12-08T02:57:48;1.10;19.30
516;DHT22;244;48.508;9.052;2022-12-08T03:00:20;1.10;19.40
516;DHT22;244;48.508;9.052;2022-12-08T03:02:58;1.10;19.40
516;DHT22;244;48.508;9.052;2022-12-08T03:05:47;1.10;19.50
516;DHT22;244;48.508;9.052;2022-12-08T03:08:26;1.00;19.50
516;DHT22;244;48.508;9.052;2022-12-08T03:10:59;1.10;19.60
516;DHT22;244;48.508;9.052;2022-12-08T03:13:31;1.00;19.60
516;DHT22;244;48.508;9.052;2022-12-08T03:16:00;1.00;19.60
516;DHT22;244;48.508;9.052;2022-12-08T03:18:31;1.00;19.60
516;DHT22;244;48.508;9.052;2022-12-08T03:21:02;1.00;19.60
516;DHT22;244;48.508;9.052;2022-12-08T03:23:29;0.90;19.40
516;DHT22;244;48.508;9.052;2022-12-08T03:26:00;1.00;19.30
516;DHT22;244;48.508;9.052;2022-12-08T03:28:30;0.90;19.30
516;DHT22;244;48.508;9.052;2022-12-08T03:31:02;0.90;19.30
516;DHT22;244;48.508;9.052;2022-12-08T03:33:32;0.80;19.40
516;DHT22;244;48.508;9.052;2022-12-08T03:36:07;0.80;19.60
516;DHT22;244;48.508;9.052;2022-12-08T03:38:39;0.80;19.70
516;DHT22;244;48.508;9.052;2022-12-08T03:41:06;0.80;19.80
516;DHT22;244;48.508;9.052;2022-12-08T03:43:46;0.80;19.80
516;DHT22;244;48.508;9.052;2022-12-08T03:46:14;0.80;19.80
516;DHT22;244;48.508;9.052;2022-12-08T03:48:41;0.80;19.80
516;DHT22;244;48.508;9.052;2022-12-08T03:51:10;0.80;20.20
516;DHT22;244;48.508;9.052;2022-12-08T03:53:37;0.70;19.40
516;DHT22;244;48.508;9.052;2022-12-08T03:56:10;0.70;19.50
516;DHT22;244;48.508;9.052;2022-12-08T03:58:39;0.70;19.60
516;DHT22;244;48.508;9.052;2022-12-08T04:01:06;0.70;19.80
516;DHT22;244;48.508;9.052;2022-12-08T04:03:33;0.70;19.90
516;DHT22;244;48.508;9.052;2022-12-08T04:06:00;0.70;20.00
516;DHT22;244;48.508;9.052;2022-12-08T04:08:29;0.70;19.90
516;DHT22;244;48.508;9.052;2022-12-08T04:10:56;0.60;19.70
516;DHT22;244;48.508;9.052;2022-12-08T04:13:23;0.60;19.60
516;DHT22;244;48.508;9.052;2022-12-08T04:15:50;0.60;19.60
516;DHT22;244;48.508;9.052;2022-12-08T04:18:17;0.60;19.60
516;DHT22;244;48.508;9.052;2022-12-08T04:20:45;0.60;19.70
516;DHT22;244;48.508;9.052;2022-12-08T04:23:12;0.50;19.70
516;DHT22;244;48.508;9.052;2022-12-08T04:25:40;0.50;19.70
516;DHT22;244;48.508;9.052;2022-12-08T04:28:07;0.50;20.30
516;DHT22;244;48.508;9.052;2022-12-08T04:30:34;0.50;19.70
516;DHT22;244;48.508;9.052;2022-12-08T04:33:02;0.50;19.70
516;DHT22;244;48.508;9.052;2022-12-08T04:35:29;0.50;19.80
516;DHT22;244;48.508;9.052;2022-12-08T04:37:56;0.40;19.80
516;DHT22;244;48.508;9.052;2022-12-08T04:40:23;0.40;19.90
516;DHT22;244;48.508;9.052;2022-12-08T04:42:52;0.50;20.60
516;DHT22;244;48.508;9.052;2022-12-08T04:45:19;0.40;19.80
516;DHT22;244;48.508;9.052;2022-12-08T04:47:46;0.40;19.60
516;DHT22;244;48.508;9.052;2022-12-08T04:50:13;0.30;19.70
516;DHT22;244;48.508;9.052;2022-12-08T04:52:40;0.30;19.70
516;DHT22;244;48.508;9.052;2022-12-08T04:55:07;0.30;19.90
516;DHT22;244;48.508;9.052;2022-12-08T04:57:34;0.30;20.10
516;DHT22;244;48.508;9.052;2022-12-08T05:00:03;0.30;20.20
516;DHT22;244;48.508;9.052;2022-12-08T05:02:30;0.30;20.00
516;DHT22;244;48.508;9.052;2022-12-08T05:04:58;0.30;19.70
516;DHT22;244;48.508;9.052;2022-12-08T05:07:25;0.30;19.70
516;DHT22;244;48.508;9.052;2022-12-08T05:09:53;0.30;19.80
516;DHT22;244;48.508;9.052;2022-12-08T05:12:19;0.30;20.00
516;DHT22;244;48.508;9.052;2022-12-08T05:14:47;0.20;20.00
516;DHT22;244;48.508;9.052;2022-12-08T05:17:16;0.20;20.10
516;DHT22;244;48.508;9.052;2022-12-08T05:19:43;0.20;20.20
516;DHT22;244;48.508;9.052;2022-12-08T05:22:10;0.30;20.30
516;DHT22;244;48.508;9.052;2022-12-08T05:24:37;0.30;20.30
516;DHT22;244;48.508;9.052;2022-12-08T05:27:04;0.30;20.00
516;DHT22;244;48.508;9.052;2022-12-08T05:29:32;0.30;19.90
516;DHT22;244;48.508;9.052;2022-12-08T05:31:59;0.20;19.80
516;DHT22;244;48.508;9.052;2022-12-08T05:34:27;0.20;19.80
516;DHT22;244;48.508;9.052;2022-12-08T05:36:54;0.20;19.60
516;DHT22;244;48.508;9.052;2022-12-08T05:39:21;0.10;19.50
516;DHT22;244;48.508;9.052;2022-12-08T05:41:48;0.10;20.30
516;DHT22;244;48.508;9.052;2022-12-08T05:44:15;0.10;19.90
516;DHT22;244;48.508;9.052;2022-12-08T05:46:42;0.10;20.00
516;DHT22;244;48.508;9.052;2022-12-08T05:49:09;0.00;19.70
516;DHT22;244;48.508;9.052;2022-12-08T05:51:37;0.00;19.60
516;DHT22;244;48.508;9.052;2022-12-08T05:54:05;-0.10;19.60
516;DHT22;244;48.508;9.052;2022-12-08T05:56:32;0.00;19.80
516;DHT22;244;48.508;9.052;2022-12-08T05:58:59;-0.10;20.00
516;DHT22;244;48.508;9.052;2022-12-08T06:01:28;0.00;20.30
516;DHT22;244;48.508;9.052;2022-12-08T06:03:56;0.00;20.20
516;DHT22;244;48.508;9.052;2022-12-08T06:06:24;0.00;20.10
516;DHT22;244;48.508;9.052;2022-12-08T06:08:53;-0.10;20.00
516;DHT22;244;48.508;9.052;2022-12-08T06:11:22;-0.10;20.40
516;DHT22;244;48.508;9.052;2022-12-08T06:13:51;-0.10;19.80
516;DHT22;244;48.508;9.052;2022-12-08T06:16:18;-0.10;19.80
516;DHT22;244;48.508;9.052;2022-12-08T06:18:45;-0.20;20.50
516;DHT22;244;48.508;9.052;2022-12-08T06:21:14;-0.20;19.90
516;DHT22;244;48.508;9.052;2022-12-08T06:23:42;-0.20;20.10
516;DHT22;244;48.508;9.052;2022-12-08T06:26:12;-0.20;20.10
516;DHT22;244;48.508;9.052;2022-12-08T06:28:40;-0.20;20.10
516;DHT22;244;48.508;9.052;2022-12-08T06:31:09;-0.20;20.00
516;DHT22;244;48.508;9.052;2022-12-08T06:33:37;-0.20;20.00
516;DHT22;244;48.508;9.052;2022-12-08T06:36:05;-0.20;20.10
516;DHT22;244;48.508;9.052;2022-12-08T06:38:32;-0.20;20.10
516;DHT22;244;48.508;9.052;2022-12-08T06:41:00;-0.20;20.20
516;DHT22;244;48.508;9.052;2022-12-08T06:43:31;-0.20;20.80
516;DHT22;244;48.508;9.052;2022-12-08T06:45:59;-0.20;20.20
516;DHT22;244;48.508;9.052;2022-12-08T06:48:27;-0.20;20.10
516;DHT22;244;48.508;9.052;2022-12-08T06:50:54;-0.20;20.00
516;DHT22;244;48.508;9.052;2022-12-08T06:53:21;-0.20;20.10
516;DHT22;244;48.508;9.052;2022-12-08T06:55:51;-0.20;20.20
516;DHT22;244;48.508;9.052;2022-12-08T06:58:19;-0.20;20.20
516;DHT22;244;48.508;9.052;2022-12-08T07:00:48;-0.20;20.20
516;DHT22;244;48.508;9.052;2022-12-08T07:03:14;-0.20;20.10
516;DHT22;244;48.508;9.052;2022-12-08T07:05:42;-0.20;20.20
516;DHT22;244;48.508;9.052;2022-12-08T07:08:11;-0.20;20.20
516;DHT22;244;48.508;9.052;2022-12-08T07:10:38;-0.20;20.30
516;DHT22;244;48.508;9.052;2022-12-08T07:13:05;-0.20;20.40
516;DHT22;244;48.508;9.052;2022-12-08T07:15:32;-0.20;20.30
516;DHT22;244;48.508;9.052;2022-12-08T07:18:00;-0.10;20.40
516;DHT22;244;48.508;9.052;2022-12-08T07:20:27;-0.10;20.30
516;DHT22;244;48.508;9.052;2022-12-08T07:22:55;-0.10;20.30
516;DHT22;244;48.508;9.052;2022-12-08T07:25:21;-0.10;20.30
516;DHT22;244;48.508;9.052;2022-12-08T07:27:48;-0.10;20.30
516;DHT22;244;48.508;9.052;2022-12-08T07:30:17;0.00;20.30
516;DHT22;244;48.508;9.052;2022-12-08T07:32:44;0.00;20.30
516;DHT22;244;48.508;9.052;2022-12-08T07:35:14;0.00;20.30
516;DHT22;244;48.508;9.052;2022-12-08T07:37:41;0.00;20.20
516;DHT22;244;48.508;9.052;2022-12-08T07:40:09;0.00;20.10
516;DHT22;244;48.508;9.052;2022-12-08T07:42:36;0.00;20.10
516;DHT22;244;48.508;9.052;2022-12-08T07:45:04;0.00;20.20
516;DHT22;244;48.508;9.052;2022-12-08T07:47:32;0.00;20.10
516;DHT22;244;48.508;9.052;2022-12-08T07:49:59;0.10;20.20
516;DHT22;244;48.508;9.052;2022-12-08T07:52:27;0.10;20.20
516;DHT22;244;48.508;9.052;2022-12-08T08:02:36;0.30;20.50
516;DHT22;244;48.508;9.052;2022-12-08T08:05:03;0.90;21.40
516;DHT22;244;48.508;9.052;2022-12-08T08:07:32;0.40;20.90
516;DHT22;244;48.508;9.052;2022-12-08T08:12:35;0.60;20.50
516;DHT22;244;48.508;9.052;2022-12-08T08:15:04;0.60;20.70
516;DHT22;244;48.508;9.052;2022-12-08T08:17:32;0.70;21.00
516;DHT22;244;48.508;9.052;2022-12-08T08:22:37;0.80;20.50
516;DHT22;244;48.508;9.052;2022-12-08T08:25:05;1.00;20.90
516;DHT22;244;48.508;9.052;2022-12-08T08:27:32;1.00;20.90
516;DHT22;244;48.508;9.052;2022-12-08T08:30:01;1.00;20.80
516;DHT22;244;48.508;9.052;2022-12-08T08:32:31;1.10;20.40
516;DHT22;244;48.508;9.052;2022-12-08T08:35:07;1.20;20.90
516;DHT22;244;48.508;9.052;2022-12-08T08:37:37;1.30;20.50
516;DHT22;244;48.508;9.052;2022-12-08T08:40:04;1.30;20.40
516;DHT22;244;48.508;9.052;2022-12-08T08:42:32;1.40;20.40
516;DHT22;244;48.508;9.052;2022-12-08T08:44:58;1.50;20.40
516;DHT22;244;48.508;9.052;2022-12-08T08:47:25;1.60;20.30
516;DHT22;244;48.508;9.052;2022-12-08T08:49:52;1.60;20.30
516;DHT22;244;48.508;9.052;2022-12-08T08:52:20;1.60;20.20
516;DHT22;244;48.508;9.052;2022-12-08T08:54:48;1.70;20.20
516;DHT22;244;48.508;9.052;2022-12-08T08:57:15;1.80;20.20
516;DHT22;244;48.508;9.052;2022-12-08T08:59:42;1.80;20.10
516;DHT22;244;48.508;9.052;2022-12-08T09:02:15;1.90;20.20
516;DHT22;244;48.508;9.052;2022-12-08T09:04:43;2.00;20.20
516;DHT22;244;48.508;9.052;2022-12-08T09:07:10;2.00;20.00
516;DHT22;244;48.508;9.052;2022-12-08T09:09:37;2.10;20.00
516;DHT22;244;48.508;9.052;2022-12-08T09:12:07;2.10;20.00
516;DHT22;244;48.508;9.052;2022-12-08T09:14:34;2.20;19.90
516;DHT22;244;48.508;9.052;2022-12-08T09:17:02;2.30;19.90
516;DHT22;244;48.508;9.052;2022-12-08T09:19:30;2.30;19.90
516;DHT22;244;48.508;9.052;2022-12-08T09:21:57;2.40;19.90
516;DHT22;244;48.508;9.052;2022-12-08T09:24:24;2.40;19.60
516;DHT22;244;48.508;9.052;2022-12-08T09:26:51;2.50;19.60
516;DHT22;244;48.508;9.052;2022-12-08T09:29:19;2.50;19.50
516;DHT22;244;48.508;9.052;2022-12-08T09:31:46;2.60;19.60
516;DHT22;244;48.508;9.052;2022-12-08T09:34:13;2.60;19.60
516;DHT22;244;48.508;9.052;2022-12-08T09:36:41;2.70;19.70
516;DHT22;244;48.508;9.052;2022-12-08T09:39:07;2.70;19.70
516;DHT22;244;48.508;9.052;2022-12-08T09:41:36;2.80;19.80
516;DHT22;244;48.508;9.052;2022-12-08T09:44:14;2.80;19.70
516;DHT22;244;48.508;9.052;2022-12-08T09:46:51;2.90;19.80
516;DHT22;244;48.508;9.052;2022-12-08T09:49:32;2.90;19.80
516;DHT22;244;48.508;9.052;2022-12-08T09:52:02;3.00;19.90
516;DHT22;244;48.508;9.052;2022-12-08T09:54:32;3.10;19.90
516;DHT22;244;48.508;9.052;2022-12-08T09:57:04;3.10;19.90
516;DHT22;244;48.508;9.052;2022-12-08T09:59:33;3.20;20.00
516;DHT22;244;48.508;9.052;2022-12-08T10:02:05;3.20;20.00
516;DHT22;244;48.508;9.052;2022-12-08T10:04:37;3.30;20.10
516;DHT22;244;48.508;9.052;2022-12-08T10:07:12;3.30;19.90
516;DHT22;244;48.508;9.052;2022-12-08T10:09:44;3.30;19.90
516;DHT22;244;48.508;9.052;2022-12-08T10:12:18;3.40;19.90
516;DHT22;244;48.508;9.052;2022-12-08T10:14:52;3.40;19.80
516;DHT22;244;48.508;9.052;2022-12-08T10:17:26;3.50;19.70
516;DHT22;244;48.508;9.052;2022-12-08T10:19:58;3.50;19.70
516;DHT22;244;48.508;9.052;2022-12-08T10:22:31;3.60;20.30
516;DHT22;244;48.508;9.052;2022-12-08T10:25:00;3.60;19.70
516;DHT22;244;48.508;9.052;2022-12-08T10:27:31;3.70;19.80
516;DHT22;244;48.508;9.052;2022-12-08T10:30:00;3.80;19.70
516;DHT22;244;48.508;9.052;2022-12-08T10:32:33;3.80;19.70
516;DHT22;244;48.508;9.052;2022-12-08T10:35:04;3.80;19.60
516;DHT22;244;48.508;9.052;2022-12-08T10:37:32;3.80;19.50
516;DHT22;244;48.508;9.052;2022-12-08T10:40:00;3.80;19.40
516;DHT22;244;48.508;9.052;2022-12-08T10:42:34;3.80;19.20
516;DHT22;244;48.508;9.052;2022-12-08T10:45:22;3.70;19.00
516;DHT22;244;48.508;9.052;2022-12-08T10:48:00;3.70;19.00
516;DHT22;244;48.508;9.052;2022-12-08T10:50:31;3.70;19.10
516;DHT22;244;48.508;9.052;2022-12-08T10:53:00;3.70;19.20
516;DHT22;244;48.508;9.052;2022-12-08T10:55:28;3.80;19.30
516;DHT22;244;48.508;9.052;2022-12-08T10:58:05;3.80;19.40
516;DHT22;244;48.508;9.052;2022-12-08T11:00:38;3.90;19.50
516;DHT22;244;48.508;9.052;2022-12-08T11:03:21;3.90;19.50
516;DHT22;244;48.508;9.052;2022-12-08T11:05:55;4.00;19.50
516;DHT22;244;48.508;9.052;2022-12-08T11:08:23;4.10;19.50
516;DHT22;244;48.508;9.052;2022-12-08T11:10:50;4.20;19.50
516;DHT22;244;48.508;9.052;2022-12-08T11:13:20;4.20;19.40
516;DHT22;244;48.508;9.052;2022-12-08T11:15:48;4.30;19.40
516;DHT22;244;48.508;9.052;2022-12-08T11:18:27;4.40;19.50
516;DHT22;244;48.508;9.052;2022-12-08T11:21:00;4.50;19.50
516;DHT22;244;48.508;9.052;2022-12-08T11:23:28;4.50;19.50
516;DHT22;244;48.508;9.052;2022-12-08T11:26:00;4.60;19.40
516;DHT22;244;48.508;9.052;2022-12-08T11:28:28;4.80;19.40
516;DHT22;244;48.508;9.052;2022-12-08T11:30:59;4.90;19.40
516;DHT22;244;48.508;9.052;2022-12-08T11:33:28;4.90;19.20
516;DHT22;244;48.508;9.052;2022-12-08T11:36:00;5.00;19.10
516;DHT22;244;48.508;9.052;2022-12-08T11:38:29;5.10;19.00
516;DHT22;244;48.508;9.052;2022-12-08T11:41:00;5.20;18.80
516;DHT22;244;48.508;9.052;2022-12-08T11:43:37;5.40;18.80
516;DHT22;244;48.508;9.052;2022-12-08T11:46:11;5.40;18.60
516;DHT22;244;48.508;9.052;2022-12-08T11:48:45;5.50;18.40
516;DHT22;244;48.508;9.052;2022-12-08T11:51:17;5.50;18.20
516;DHT22;244;48.508;9.052;2022-12-08T11:53:51;5.60;18.10
516;DHT22;244;48.508;9.052;2022-12-08T11:56:28;5.50;18.00
516;DHT22;244;48.508;9.052;2022-12-08T11:59:00;5.50;17.60
516;DHT22;244;48.508;9.052;2022-12-08T12:01:28;5.50;17.40
516;DHT22;244;48.508;9.052;2022-12-08T12:04:08;5.50;17.10
516;DHT22;244;48.508;9.052;2022-12-08T12:07:05;5.50;17.10
516;DHT22;244;48.508;9.052;2022-12-08T12:09:44;5.50;17.10
516;DHT22;244;48.508;9.052;2022-12-08T12:12:26;5.50;17.10
516;DHT22;244;48.508;9.052;2022-12-08T12:15:20;5.50;17.10
516;DHT22;244;48.508;9.052;2022-12-08T12:17:52;5.60;17.10
516;DHT22;244;48.508;9.052;2022-12-08T12:20:24;5.70;16.90
516;DHT22;244;48.508;9.052;2022-12-08T12:22:59;5.90;16.90
516;DHT22;244;48.508;9.052;2022-12-08T12:25:28;6.00;16.70
516;DHT22;244;48.508;9.052;2022-12-08T12:27:58;6.10;16.60
516;DHT22;244;48.508;9.052;2022-12-08T12:30:30;6.20;16.40
516;DHT22;244;48.508;9.052;2022-12-08T12:33:00;6.30;16.10
516;DHT22;244;48.508;9.052;2022-12-08T12:35:35;6.40;15.90
516;DHT22;244;48.508;9.052;2022-12-08T12:40:39;6.70;15.30
516;DHT22;244;48.508;9.052;2022-12-08T12:43:23;6.90;15.10
516;DHT22;244;48.508;9.052;2022-12-08T12:52:54;7.30;13.90
516;DHT22;244;48.508;9.052;2022-12-08T12:55:28;7.40;14.00
516;DHT22;244;48.508;9.052;2022-12-08T12:58:36;7.40;13.80
516;DHT22;244;48.508;9.052;2022-12-08T13:01:35;7.40;13.60
516;DHT22;244;48.508;9.052;2022-12-08T13:04:05;7.40;13.50
516;DHT22;244;48.508;9.052;2022-12-08T13:06:36;7.30;13.40
516;DHT22;244;48.508;9.052;2022-12-08T13:09:20;7.30;13.40
516;DHT22;244;48.508;9.052;2022-12-08T13:11:50;7.20;13.30
516;DHT22;244;48.508;9.052;2022-12-08T13:14:33;7.10;13.20
516;DHT22;244;48.508;9.052;2022-12-08T13:17:04;7.00;13.20
516;DHT22;244;48.508;9.052;2022-12-08T13:19:35;7.00;13.10
516;DHT22;244;48.508;9.052;2022-12-08T13:28:29;6.80;12.90
516;DHT22;244;48.508;9.052;2022-12-08T13:30:57;6.60;12.80
516;DHT22;244;48.508;9.052;2022-12-08T13:33:30;6.70;12.90
516;DHT22;244;48.508;9.052;2022-12-08T13:36:09;6.60;12.90
516;DHT22;244;48.508;9.052;2022-12-08T13:38:38;6.60;12.90
516;DHT22;244;48.508;9.052;2022-12-08T13:41:12;6.60;12.80
516;DHT22;244;48.508;9.052;2022-12-08T13:43:46;6.60;12.80
516;DHT22;244;48.508;9.052;2022-12-08T13:46:16;6.50;12.70
516;DHT22;244;48.508;9.052;2022-12-08T13:48:50;6.50;12.50
516;DHT22;244;48.508;9.052;2022-12-08T13:51:20;6.40;12.50
516;DHT22;244;48.508;9.052;2022-12-08T13:53:57;6.40;12.50
516;DHT22;244;48.508;9.052;2022-12-08T13:56:26;6.40;12.60
516;DHT22;244;48.508;9.052;2022-12-08T13:59:09;6.40;12.60
516;DHT22;244;48.508;9.052;2022-12-08T14:01:51;6.40;13.20
516;DHT22;244;48.508;9.052;2022-12-08T14:04:19;6.40;12.70
516;DHT22;244;48.508;9.052;2022-12-08T14:06:49;6.40;12.70
516;DHT22;244;48.508;9.052;2022-12-08T14:09:19;6.40;12.70
516;DHT22;244;48.508;9.052;2022-12-08T14:11:50;6.30;12.60
516;DHT22;244;48.508;9.052;2022-12-08T14:14:22;6.30;12.50
516;DHT22;244;48.508;9.052;2022-12-08T14:16:53;6.30;12.50
516;DHT22;244;48.508;9.052;2022-12-08T14:19:22;6.30;12.60
516;DHT22;244;48.508;9.052;2022-12-08T14:21:56;6.30;12.60
516;DHT22;244;48.508;9.052;2022-12-08T14:24:24;6.20;12.60
516;DHT22;244;48.508;9.052;2022-12-08T14:26:53;6.20;12.60
516;DHT22;244;48.508;9.052;2022-12-08T14:29:46;6.20;12.60
516;DHT22;244;48.508;9.052;2022-12-08T14:32:21;6.20;12.60
516;DHT22;244;48.508;9.052;2022-12-08T14:35:00;6.20;12.50
516;DHT22;244;48.508;9.052;2022-12-08T14:37:30;6.20;12.50
516;DHT22;244;48.508;9.052;2022-12-08T14:40:00;6.10;12.30
516;DHT22;244;48.508;9.052;2022-12-08T14:42:28;6.10;12.30
516;DHT22;244;48.508;9.052;2022-12-08T14:45:10;6.00;12.30
516;DHT22;244;48.508;9.052;2022-12-08T14:47:38;6.00;12.40
516;DHT22;244;48.508;9.052;2022-12-08T14:50:35;6.00;12.40
516;DHT22;244;48.508;9.052;2022-12-08T14:53:03;6.00;12.50
516;DHT22;244;48.508;9.052;2022-12-08T14:55:34;6.00;13.00
516;DHT22;244;48.508;9.052;2022-12-08T14:58:03;6.00;12.40
516;DHT22;244;48.508;9.052;2022-12-08T15:00:32;6.00;12.50
516;DHT22;244;48.508;9.052;2022-12-08T15:03:05;5.90;12.40
516;DHT22;244;48.508;9.052;2022-12-08T15:05:33;5.90;12.50
516;DHT22;244;48.508;9.052;2022-12-08T15:08:02;5.90;12.50
516;DHT22;244;48.508;9.052;2022-12-08T15:10:31;5.90;12.50
516;DHT22;244;48.508;9.052;2022-12-08T15:13:05;5.90;12.50
516;DHT22;244;48.508;9.052;2022-12-08T15:15:47;5.80;12.40
516;DHT22;244;48.508;9.052;2022-12-08T15:18:16;5.80;12.50
516;DHT22;244;48.508;9.052;2022-12-08T15:20:45;5.80;12.50
516;DHT22;244;48.508;9.052;2022-12-08T15:23:20;5.80;12.40
516;DHT22;244;48.508;9.052;2022-12-08T15:25:48;5.80;12.50
516;DHT22;244;48.508;9.052;2022-12-08T15:28:16;5.70;12.40
516;DHT22;244;48.508;9.052;2022-12-08T15:30:45;5.70;12.40
516;DHT22;244;48.508;9.052;2022-12-08T15:33:13;5.70;12.40
516;DHT22;244;48.508;9.052;2022-12-08T15:35:40;5.70;12.50
516;DHT22;244;48.508;9.052;2022-12-08T15:38:16;5.70;12.50
516;DHT22;244;48.508;9.052;2022-12-08T15:40:44;5.70;12.50
516;DHT22;244;48.508;9.052;2022-12-08T15:43:11;5.60;12.50
516;DHT22;244;48.508;9.052;2022-12-08T15:45:38;5.60;12.50
516;DHT22;244;48.508;9.052;2022-12-08T15:48:13;5.60;12.60
516;DHT22;244;48.508;9.052;2022-12-08T15:50:41;5.60;12.70
516;DHT22;244;48.508;9.052;2022-12-08T15:53:09;5.50;12.70
516;DHT22;244;48.508;9.052;2022-12-08T15:55:36;5.50;12.80
516;DHT22;244;48.508;9.052;2022-12-08T15:58:04;5.50;12.80
516;DHT22;244;48.508;9.052;2022-12-08T16:00:33;5.50;12.80
516;DHT22;244;48.508;9.052;2022-12-08T16:03:01;5.50;12.80
516;DHT22;244;48.508;9.052;2022-12-08T16:05:30;5.50;12.80
516;DHT22;244;48.508;9.052;2022-12-08T16:07:58;5.50;12.80
516;DHT22;244;48.508;9.052;2022-12-08T16:10:26;5.50;12.80
516;DHT22;244;48.508;9.052;2022-12-08T16:12:53;5.50;12.80
516;DHT22;244;48.508;9.052;2022-12-08T16:15:39;5.40;12.70
516;DHT22;244;48.508;9.052;2022-12-08T16:18:09;5.40;12.70
516;DHT22;244;48.508;9.052;2022-12-08T16:20:41;5.40;12.70
516;DHT22;244;48.508;9.052;2022-12-08T16:23:08;5.40;12.70
516;DHT22;244;48.508;9.052;2022-12-08T16:25:36;5.30;12.70
516;DHT22;244;48.508;9.052;2022-12-08T16:28:04;5.30;12.70
516;DHT22;244;48.508;9.052;2022-12-08T16:30:31;5.30;12.60
516;DHT22;244;48.508;9.052;2022-12-08T16:32:58;5.30;12.60
516;DHT22;244;48.508;9.052;2022-12-08T16:35:25;5.30;12.60
516;DHT22;244;48.508;9.052;2022-12-08T16:37:53;5.30;12.60
516;DHT22;244;48.508;9.052;2022-12-08T16:40:20;5.30;12.60
516;DHT22;244;48.508;9.052;2022-12-08T16:42:48;5.30;12.60
516;DHT22;244;48.508;9.052;2022-12-08T16:45:16;5.20;12.60
516;DHT22;244;48.508;9.052;2022-12-08T16:47:45;5.20;12.60
516;DHT22;244;48.508;9.052;2022-12-08T16:50:14;5.10;12.50
516;DHT22;244;48.508;9.052;2022-12-08T16:52:41;5.10;12.50
516;DHT22;244;48.508;9.052;2022-12-08T16:55:11;5.10;12.50
516;DHT22;244;48.508;9.052;2022-12-08T16:57:40;5.00;12.50
516;DHT22;244;48.508;9.052;2022-12-08T17:00:08;5.00;12.50
516;DHT22;244;48.508;9.052;2022-12-08T17:02:36;5.00;12.50
516;DHT22;244;48.508;9.052;2022-12-08T17:05:03;5.00;12.50
516;DHT22;244;48.508;9.052;2022-12-08T17:07:31;4.90;12.40
516;DHT22;244;48.508;9.052;2022-12-08T17:09:58;4.90;12.40
516;DHT22;244;48.508;9.052;2022-12-08T17:12:26;4.90;12.40
516;DHT22;244;48.508;9.052;2022-12-08T17:14:53;4.90;12.50
516;DHT22;244;48.508;9.052;2022-12-08T17:17:20;4.90;12.50
516;DHT22;244;48.508;9.052;2022-12-08T17:19:47;4.80;12.40
516;DHT22;244;48.508;9.052;2022-12-08T17:22:14;4.80;12.50
516;DHT22;244;48.508;9.052;2022-12-08T17:24:41;4.80;12.50
516;DHT22;244;48.508;9.052;2022-12-08T17:27:08;4.80;12.60
516;DHT22;244;48.508;9.052;2022-12-08T17:29:37;4.80;12.50
516;DHT22;244;48.508;9.052;2022-12-08T17:32:04;4.80;13.10
516;DHT22;244;48.508;9.052;2022-12-08T17:34:31;4.80;12.50
516;DHT22;244;48.508;9.052;2022-12-08T17:36:58;4.80;12.60
516;DHT22;244;48.508;9.052;2022-12-08T17:39:25;4.70;12.50